sensor_id;sensor_type;location;lat;lon;timestamp;P1;durP1;ratioP1;P2;durP2;ratioP2
44810;SDS011;30526;52.184;4.476;2023-06-19T00:01:54;14.40;;;9.73;;
44810;SDS011;30526;52.184;4.476;2023-06-19T00:04:20;12.95;;;9.43;;
44810;SDS011;30526;52.184;4.476;2023-06-19T00:06:46;16.92;;;9.40;;
44810;SDS011;30526;52.184;4.476;2023-06-19T00:09:13;7.03;;;5.87;;
44810;SDS011;30526;52.184;4.476;2023-06-19T00:11:39;7.50;;;5.15;;
44810;SDS011;30526;52.184;4.476;2023-06-19T00:14:05;10.05;;;5.00;;
44810;SDS011;30526;52.184;4.476;2023-06-19T00:16:31;9.10;;;5.03;;
44810;SDS011;30526;52.184;4.476;2023-06-19T00:18:57;6.53;;;3.90;;
44810;SDS011;30526;52.184;4.476;2023-06-19T00:21:25;5.55;;;2.72;;
44810;SDS011;30526;52.184;4.476;2023-06-19T00:23:54;3.80;;;2.50;;
44810;SDS011;30526;52.184;4.476;2023-06-19T00:26:20;3.58;;;2.60;;
44810;SDS011;30526;52.184;4.476;2023-06-19T00:28:47;6.72;;;2.42;;
44810;SDS011;30526;52.184;4.476;2023-06-19T00:31:14;4.47;;;1.57;;
44810;SDS011;30526;52.184;4.476;2023-06-19T00:33:40;4.65;;;1.52;;
44810;SDS011;30526;52.184;4.476;2023-06-19T00:36:10;2.13;;;1.38;;
44810;SDS011;30526;52.184;4.476;2023-06-19T00:38:36;4.00;;;1.50;;
44810;SDS011;30526;52.184;4.476;2023-06-19T00:41:03;4.85;;;2.10;;
44810;SDS011;30526;52.184;4.476;2023-06-19T00:43:29;3.37;;;2.20;;
44810;SDS011;30526;52.184;4.476;2023-06-19T00:45:56;3.72;;;2.80;;
44810;SDS011;30526;52.184;4.476;2023-06-19T00:48:22;3.72;;;2.95;;
44810;SDS011;30526;52.184;4.476;2023-06-19T00:50:49;4.57;;;2.75;;
44810;SDS011;30526;52.184;4.476;2023-06-19T00:53:15;3.33;;;2.92;;
44810;SDS011;30526;52.184;4.476;2023-06-19T00:55:41;4.93;;;3.35;;
44810;SDS011;30526;52.184;4.476;2023-06-19T01:00:34;6.60;;;4.07;;
44810;SDS011;30526;52.184;4.476;2023-06-19T01:03:00;5.05;;;4.13;;
44810;SDS011;30526;52.184;4.476;2023-06-19T01:05:26;7.00;;;4.85;;
44810;SDS011;30526;52.184;4.476;2023-06-19T01:07:59;6.40;;;4.25;;
44810;SDS011;30526;52.184;4.476;2023-06-19T01:10:26;6.03;;;4.68;;
44810;SDS011;30526;52.184;4.476;2023-06-19T01:12:56;5.47;;;4.38;;
44810;SDS011;30526;52.184;4.476;2023-06-19T01:15:24;6.72;;;4.25;;
44810;SDS011;30526;52.184;4.476;2023-06-19T01:17:50;5.93;;;4.07;;
44810;SDS011;30526;52.184;4.476;2023-06-19T01:20:17;7.40;;;3.97;;
44810;SDS011;30526;52.184;4.476;2023-06-19T01:22:43;5.78;;;4.03;;
44810;SDS011;30526;52.184;4.476;2023-06-19T01:25:10;5.90;;;4.13;;
44810;SDS011;30526;52.184;4.476;2023-06-19T01:27:39;6.10;;;3.70;;
44810;SDS011;30526;52.184;4.476;2023-06-19T01:30:06;6.85;;;3.70;;
44810;SDS011;30526;52.184;4.476;2023-06-19T01:32:44;5.75;;;4.47;;
44810;SDS011;30526;52.184;4.476;2023-06-19T01:35:11;5.93;;;4.15;;
44810;SDS011;30526;52.184;4.476;2023-06-19T01:37:38;4.88;;;3.63;;
44810;SDS011;30526;52.184;4.476;2023-06-19T01:40:06;6.40;;;5.28;;
44810;SDS011;30526;52.184;4.476;2023-06-19T01:42:34;7.90;;;5.90;;
44810;SDS011;30526;52.184;4.476;2023-06-19T01:45:01;7.47;;;6.27;;
44810;SDS011;30526;52.184;4.476;2023-06-19T01:47:28;8.85;;;5.85;;
44810;SDS011;30526;52.184;4.476;2023-06-19T01:49:54;9.43;;;7.43;;
44810;SDS011;30526;52.184;4.476;2023-06-19T01:52:20;10.93;;;8.50;;
44810;SDS011;30526;52.184;4.476;2023-06-19T01:54:46;11.48;;;8.80;;
44810;SDS011;30526;52.184;4.476;2023-06-19T01:57:12;11.88;;;9.45;;
44810;SDS011;30526;52.184;4.476;2023-06-19T01:59:38;11.63;;;9.63;;
44810;SDS011;30526;52.184;4.476;2023-06-19T02:02:04;11.85;;;9.75;;
44810;SDS011;30526;52.184;4.476;2023-06-19T02:06:57;13.02;;;8.45;;
44810;SDS011;30526;52.184;4.476;2023-06-19T02:09:23;14.95;;;9.85;;
44810;SDS011;30526;52.184;4.476;2023-06-19T02:11:49;14.80;;;10.00;;
44810;SDS011;30526;52.184;4.476;2023-06-19T02:14:15;16.02;;;11.55;;
44810;SDS011;30526;52.184;4.476;2023-06-19T02:16:41;13.88;;;11.07;;
44810;SDS011;30526;52.184;4.476;2023-06-19T02:19:09;17.23;;;12.32;;
44810;SDS011;30526;52.184;4.476;2023-06-19T02:21:35;17.60;;;13.63;;
44810;SDS011;30526;52.184;4.476;2023-06-19T02:24:01;21.92;;;16.13;;
44810;SDS011;30526;52.184;4.476;2023-06-19T02:26:27;18.42;;;14.05;;
44810;SDS011;30526;52.184;4.476;2023-06-19T02:28:54;22.85;;;16.67;;
44810;SDS011;30526;52.184;4.476;2023-06-19T02:31:23;24.27;;;18.65;;
44810;SDS011;30526;52.184;4.476;2023-06-19T02:33:50;23.10;;;18.33;;
44810;SDS011;30526;52.184;4.476;2023-06-19T02:36:16;28.70;;;19.80;;
44810;SDS011;30526;52.184;4.476;2023-06-19T02:38:45;30.35;;;20.85;;
44810;SDS011;30526;52.184;4.476;2023-06-19T02:41:12;28.67;;;20.15;;
44810;SDS011;30526;52.184;4.476;2023-06-19T02:43:39;33.73;;;26.03;;
44810;SDS011;30526;52.184;4.476;2023-06-19T02:46:05;47.95;;;31.15;;
44810;SDS011;30526;52.184;4.476;2023-06-19T02:48:31;41.45;;;30.45;;
44810;SDS011;30526;52.184;4.476;2023-06-19T02:50:57;47.67;;;32.80;;
44810;SDS011;30526;52.184;4.476;2023-06-19T02:53:23;49.53;;;33.22;;
44810;SDS011;30526;52.184;4.476;2023-06-19T02:55:49;54.78;;;36.05;;
44810;SDS011;30526;52.184;4.476;2023-06-19T02:58:15;59.22;;;38.72;;
44810;SDS011;30526;52.184;4.476;2023-06-19T03:00:41;57.65;;;37.08;;
44810;SDS011;30526;52.184;4.476;2023-06-19T03:03:07;60.83;;;39.65;;
44810;SDS011;30526;52.184;4.476;2023-06-19T03:05:33;62.13;;;39.85;;
44810;SDS011;30526;52.184;4.476;2023-06-19T03:07:59;60.70;;;41.38;;
44810;SDS011;30526;52.184;4.476;2023-06-19T03:10:25;67.65;;;43.40;;
44810;SDS011;30526;52.184;4.476;2023-06-19T03:12:51;75.95;;;43.17;;
44810;SDS011;30526;52.184;4.476;2023-06-19T03:15:17;77.70;;;45.88;;
44810;SDS011;30526;52.184;4.476;2023-06-19T03:17:43;77.68;;;48.45;;
44810;SDS011;30526;52.184;4.476;2023-06-19T03:20:10;90.93;;;51.17;;
44810;SDS011;30526;52.184;4.476;2023-06-19T03:22:40;97.10;;;48.53;;
44810;SDS011;30526;52.184;4.476;2023-06-19T03:25:06;87.22;;;46.97;;
44810;SDS011;30526;52.184;4.476;2023-06-19T03:27:32;124.93;;;48.15;;
44810;SDS011;30526;52.184;4.476;2023-06-19T03:29:58;77.57;;;41.85;;
44810;SDS011;30526;52.184;4.476;2023-06-19T03:32:24;74.95;;;35.70;;
44810;SDS011;30526;52.184;4.476;2023-06-19T03:34:50;53.38;;;29.98;;
44810;SDS011;30526;52.184;4.476;2023-06-19T03:37:16;56.72;;;31.25;;
44810;SDS011;30526;52.184;4.476;2023-06-19T03:39:42;48.42;;;26.88;;
44810;SDS011;30526;52.184;4.476;2023-06-19T03:42:08;53.50;;;29.23;;
44810;SDS011;30526;52.184;4.476;2023-06-19T03:44:34;68.93;;;34.70;;
44810;SDS011;30526;52.184;4.476;2023-06-19T03:47:00;87.97;;;39.03;;
44810;SDS011;30526;52.184;4.476;2023-06-19T03:49:26;108.30;;;46.58;;
44810;SDS011;30526;52.184;4.476;2023-06-19T03:51:55;130.90;;;51.72;;
44810;SDS011;30526;52.184;4.476;2023-06-19T03:54:20;120.85;;;48.25;;
44810;SDS011;30526;52.184;4.476;2023-06-19T03:56:46;199.63;;;54.42;;
44810;SDS011;30526;52.184;4.476;2023-06-19T03:59:12;128.35;;;49.63;;
44810;SDS011;30526;52.184;4.476;2023-06-19T04:01:38;130.82;;;49.33;;
44810;SDS011;30526;52.184;4.476;2023-06-19T04:04:07;117.82;;;49.33;;
44810;SDS011;30526;52.184;4.476;2023-06-19T04:06:33;111.38;;;42.38;;
44810;SDS011;30526;52.184;4.476;2023-06-19T04:08:59;102.97;;;41.45;;
44810;SDS011;30526;52.184;4.476;2023-06-19T04:11:25;92.30;;;38.13;;
44810;SDS011;30526;52.184;4.476;2023-06-19T04:13:51;83.55;;;34.75;;
44810;SDS011;30526;52.184;4.476;2023-06-19T04:16:17;77.20;;;33.15;;
44810;SDS011;30526;52.184;4.476;2023-06-19T04:18:43;68.47;;;31.38;;
44810;SDS011;30526;52.184;4.476;2023-06-19T04:21:09;64.55;;;30.45;;
44810;SDS011;30526;52.184;4.476;2023-06-19T04:23:35;67.13;;;31.70;;
44810;SDS011;30526;52.184;4.476;2023-06-19T04:26:05;52.65;;;25.80;;
44810;SDS011;30526;52.184;4.476;2023-06-19T04:28:31;57.85;;;28.77;;
44810;SDS011;30526;52.184;4.476;2023-06-19T04:30:57;47.85;;;27.73;;
44810;SDS011;30526;52.184;4.476;2023-06-19T04:33:26;52.45;;;28.45;;
44810;SDS011;30526;52.184;4.476;2023-06-19T04:35:53;44.75;;;25.63;;
44810;SDS011;30526;52.184;4.476;2023-06-19T04:38:21;48.20;;;26.63;;
44810;SDS011;30526;52.184;4.476;2023-06-19T04:40:50;39.67;;;24.15;;
44810;SDS011;30526;52.184;4.476;2023-06-19T04:43:17;45.28;;;23.55;;
44810;SDS011;30526;52.184;4.476;2023-06-19T04:45:43;39.63;;;22.75;;
44810;SDS011;30526;52.184;4.476;2023-06-19T04:48:09;39.58;;;22.77;;
44810;SDS011;30526;52.184;4.476;2023-06-19T04:50:35;39.75;;;21.73;;
44810;SDS011;30526;52.184;4.476;2023-06-19T04:53:03;37.13;;;21.85;;
44810;SDS011;30526;52.184;4.476;2023-06-19T04:55:29;36.97;;;21.52;;
44810;SDS011;30526;52.184;4.476;2023-06-19T04:57:55;30.63;;;19.83;;
44810;SDS011;30526;52.184;4.476;2023-06-19T05:00:24;31.75;;;20.05;;
44810;SDS011;30526;52.184;4.476;2023-06-19T05:02:52;37.05;;;18.67;;
44810;SDS011;30526;52.184;4.476;2023-06-19T05:05:18;29.90;;;18.67;;
44810;SDS011;30526;52.184;4.476;2023-06-19T05:07:44;25.85;;;16.67;;
44810;SDS011;30526;52.184;4.476;2023-06-19T05:10:10;31.80;;;18.58;;
44810;SDS011;30526;52.184;4.476;2023-06-19T05:12:36;31.27;;;17.67;;
44810;SDS011;30526;52.184;4.476;2023-06-19T05:15:02;36.20;;;19.40;;
44810;SDS011;30526;52.184;4.476;2023-06-19T05:17:28;33.17;;;19.65;;
44810;SDS011;30526;52.184;4.476;2023-06-19T05:19:54;37.85;;;20.48;;
44810;SDS011;30526;52.184;4.476;2023-06-19T05:22:20;36.53;;;20.75;;
44810;SDS011;30526;52.184;4.476;2023-06-19T05:24:48;41.55;;;22.98;;
44810;SDS011;30526;52.184;4.476;2023-06-19T05:27:14;33.17;;;22.38;;
44810;SDS011;30526;52.184;4.476;2023-06-19T05:29:40;39.28;;;22.45;;
44810;SDS011;30526;52.184;4.476;2023-06-19T05:32:06;39.47;;;22.63;;
44810;SDS011;30526;52.184;4.476;2023-06-19T05:34:32;41.33;;;22.30;;
44810;SDS011;30526;52.184;4.476;2023-06-19T05:36:58;38.88;;;22.50;;
44810;SDS011;30526;52.184;4.476;2023-06-19T05:39:25;39.55;;;25.27;;
44810;SDS011;30526;52.184;4.476;2023-06-19T05:41:51;42.58;;;24.20;;
44810;SDS011;30526;52.184;4.476;2023-06-19T05:44:17;43.60;;;23.35;;
44810;SDS011;30526;52.184;4.476;2023-06-19T05:46:44;41.28;;;23.50;;
44810;SDS011;30526;52.184;4.476;2023-06-19T05:49:10;36.30;;;22.88;;
44810;SDS011;30526;52.184;4.476;2023-06-19T05:51:36;41.05;;;24.27;;
44810;SDS011;30526;52.184;4.476;2023-06-19T05:54:02;40.47;;;24.75;;
44810;SDS011;30526;52.184;4.476;2023-06-19T05:56:31;39.55;;;25.17;;
44810;SDS011;30526;52.184;4.476;2023-06-19T05:58:58;46.45;;;25.73;;
44810;SDS011;30526;52.184;4.476;2023-06-19T06:01:25;45.85;;;25.58;;
44810;SDS011;30526;52.184;4.476;2023-06-19T06:03:53;41.67;;;26.02;;
44810;SDS011;30526;52.184;4.476;2023-06-19T06:06:19;46.13;;;25.33;;
44810;SDS011;30526;52.184;4.476;2023-06-19T06:08:45;40.80;;;24.30;;
44810;SDS011;30526;52.184;4.476;2023-06-19T06:11:11;45.10;;;27.10;;
44810;SDS011;30526;52.184;4.476;2023-06-19T06:13:37;40.47;;;25.77;;
44810;SDS011;30526;52.184;4.476;2023-06-19T06:16:03;45.05;;;26.50;;
44810;SDS011;30526;52.184;4.476;2023-06-19T06:18:29;43.60;;;27.35;;
44810;SDS011;30526;52.184;4.476;2023-06-19T06:20:55;41.80;;;26.10;;
44810;SDS011;30526;52.184;4.476;2023-06-19T06:23:24;43.05;;;24.35;;
44810;SDS011;30526;52.184;4.476;2023-06-19T06:25:50;37.72;;;22.92;;
44810;SDS011;30526;52.184;4.476;2023-06-19T06:28:16;37.60;;;22.50;;
44810;SDS011;30526;52.184;4.476;2023-06-19T06:30:42;24.90;;;16.75;;
44810;SDS011;30526;52.184;4.476;2023-06-19T06:33:08;32.70;;;21.45;;
44810;SDS011;30526;52.184;4.476;2023-06-19T06:35:34;37.38;;;21.92;;
44810;SDS011;30526;52.184;4.476;2023-06-19T06:38:01;28.92;;;19.88;;
44810;SDS011;30526;52.184;4.476;2023-06-19T06:40:27;28.08;;;20.15;;
44810;SDS011;30526;52.184;4.476;2023-06-19T06:42:53;29.83;;;19.45;;
44810;SDS011;30526;52.184;4.476;2023-06-19T06:45:19;31.02;;;19.25;;
44810;SDS011;30526;52.184;4.476;2023-06-19T06:47:45;31.40;;;19.60;;
44810;SDS011;30526;52.184;4.476;2023-06-19T06:50:11;28.92;;;18.90;;
44810;SDS011;30526;52.184;4.476;2023-06-19T06:52:37;23.67;;;16.50;;
44810;SDS011;30526;52.184;4.476;2023-06-19T06:55:04;29.05;;;18.05;;
44810;SDS011;30526;52.184;4.476;2023-06-19T06:57:30;24.97;;;15.53;;
44810;SDS011;30526;52.184;4.476;2023-06-19T06:59:56;27.60;;;16.38;;
44810;SDS011;30526;52.184;4.476;2023-06-19T07:02:22;21.52;;;14.63;;
44810;SDS011;30526;52.184;4.476;2023-06-19T07:04:48;23.25;;;14.50;;
44810;SDS011;30526;52.184;4.476;2023-06-19T07:07:14;21.08;;;12.98;;
44810;SDS011;30526;52.184;4.476;2023-06-19T07:09:40;18.55;;;13.68;;
44810;SDS011;30526;52.184;4.476;2023-06-19T07:12:06;21.75;;;13.30;;
44810;SDS011;30526;52.184;4.476;2023-06-19T07:14:32;20.50;;;13.68;;
44810;SDS011;30526;52.184;4.476;2023-06-19T07:16:58;24.00;;;14.10;;
44810;SDS011;30526;52.184;4.476;2023-06-19T07:19:24;23.52;;;13.25;;
44810;SDS011;30526;52.184;4.476;2023-06-19T07:21:50;25.73;;;13.18;;
44810;SDS011;30526;52.184;4.476;2023-06-19T07:24:16;19.08;;;12.52;;
44810;SDS011;30526;52.184;4.476;2023-06-19T07:26:42;20.33;;;12.85;;
44810;SDS011;30526;52.184;4.476;2023-06-19T07:29:08;26.60;;;13.32;;
44810;SDS011;30526;52.184;4.476;2023-06-19T07:31:34;21.67;;;13.60;;
44810;SDS011;30526;52.184;4.476;2023-06-19T07:34:00;22.40;;;14.23;;
44810;SDS011;30526;52.184;4.476;2023-06-19T07:36:27;25.70;;;14.13;;
44810;SDS011;30526;52.184;4.476;2023-06-19T07:38:54;22.88;;;14.60;;
44810;SDS011;30526;52.184;4.476;2023-06-19T07:43:46;21.05;;;13.55;;
44810;SDS011;30526;52.184;4.476;2023-06-19T07:46:12;26.10;;;12.75;;
44810;SDS011;30526;52.184;4.476;2023-06-19T07:48:40;20.45;;;12.13;;
44810;SDS011;30526;52.184;4.476;2023-06-19T07:51:06;19.80;;;12.13;;
44810;SDS011;30526;52.184;4.476;2023-06-19T07:53:32;21.35;;;12.63;;
44810;SDS011;30526;52.184;4.476;2023-06-19T07:55:58;22.90;;;12.82;;
44810;SDS011;30526;52.184;4.476;2023-06-19T07:58:24;26.40;;;13.85;;
44810;SDS011;30526;52.184;4.476;2023-06-19T08:00:50;21.65;;;14.45;;
44810;SDS011;30526;52.184;4.476;2023-06-19T08:03:16;25.85;;;15.10;;
44810;SDS011;30526;52.184;4.476;2023-06-19T08:05:42;27.95;;;14.57;;
44810;SDS011;30526;52.184;4.476;2023-06-19T08:08:08;28.23;;;15.85;;
44810;SDS011;30526;52.184;4.476;2023-06-19T08:10:34;24.90;;;14.82;;
44810;SDS011;30526;52.184;4.476;2023-06-19T08:13:00;22.55;;;14.25;;
44810;SDS011;30526;52.184;4.476;2023-06-19T08:15:26;22.58;;;14.70;;
44810;SDS011;30526;52.184;4.476;2023-06-19T08:17:52;22.98;;;13.57;;
44810;SDS011;30526;52.184;4.476;2023-06-19T08:20:18;20.67;;;14.30;;
44810;SDS011;30526;52.184;4.476;2023-06-19T08:22:45;24.45;;;13.38;;
44810;SDS011;30526;52.184;4.476;2023-06-19T08:25:11;18.20;;;12.68;;
44810;SDS011;30526;52.184;4.476;2023-06-19T08:27:37;17.40;;;13.32;;
44810;SDS011;30526;52.184;4.476;2023-06-19T08:30:03;20.52;;;12.10;;
44810;SDS011;30526;52.184;4.476;2023-06-19T08:32:29;17.48;;;12.10;;
44810;SDS011;30526;52.184;4.476;2023-06-19T08:34:55;17.38;;;12.65;;
44810;SDS011;30526;52.184;4.476;2023-06-19T08:37:21;18.15;;;11.25;;
44810;SDS011;30526;52.184;4.476;2023-06-19T08:39:47;22.23;;;13.25;;
44810;SDS011;30526;52.184;4.476;2023-06-19T08:42:13;19.92;;;12.82;;
44810;SDS011;30526;52.184;4.476;2023-06-19T08:44:39;20.80;;;12.32;;
44810;SDS011;30526;52.184;4.476;2023-06-19T08:47:05;20.83;;;11.52;;
44810;SDS011;30526;52.184;4.476;2023-06-19T08:49:34;17.80;;;11.40;;
44810;SDS011;30526;52.184;4.476;2023-06-19T08:52:01;23.23;;;12.65;;
44810;SDS011;30526;52.184;4.476;2023-06-19T08:54:27;21.55;;;12.27;;
44810;SDS011;30526;52.184;4.476;2023-06-19T08:56:53;23.13;;;12.77;;
44810;SDS011;30526;52.184;4.476;2023-06-19T08:59:20;20.65;;;13.15;;
44810;SDS011;30526;52.184;4.476;2023-06-19T09:01:46;19.87;;;12.50;;
44810;SDS011;30526;52.184;4.476;2023-06-19T09:04:23;20.85;;;12.02;;
44810;SDS011;30526;52.184;4.476;2023-06-19T09:07:01;27.40;;;12.82;;
44810;SDS011;30526;52.184;4.476;2023-06-19T09:09:30;22.40;;;12.05;;
44810;SDS011;30526;52.184;4.476;2023-06-19T09:12:01;24.40;;;12.30;;
44810;SDS011;30526;52.184;4.476;2023-06-19T09:14:38;22.80;;;12.25;;
44810;SDS011;30526;52.184;4.476;2023-06-19T09:17:04;24.67;;;12.30;;
44810;SDS011;30526;52.184;4.476;2023-06-19T09:19:31;17.92;;;10.90;;
44810;SDS011;30526;52.184;4.476;2023-06-19T09:22:04;18.13;;;11.88;;
44810;SDS011;30526;52.184;4.476;2023-06-19T09:24:40;20.48;;;11.63;;
44810;SDS011;30526;52.184;4.476;2023-06-19T09:27:10;18.63;;;11.63;;
44810;SDS011;30526;52.184;4.476;2023-06-19T09:29:41;20.10;;;12.18;;
44810;SDS011;30526;52.184;4.476;2023-06-19T09:32:40;17.70;;;11.77;;
44810;SDS011;30526;52.184;4.476;2023-06-19T09:35:00;16.40;;;11.40;;
44810;SDS011;30526;52.184;4.476;2023-06-19T09:37:27;17.10;;;11.15;;
44810;SDS011;30526;52.184;4.476;2023-06-19T09:39:57;17.27;;;11.57;;
44810;SDS011;30526;52.184;4.476;2023-06-19T09:42:26;19.67;;;11.63;;
44810;SDS011;30526;52.184;4.476;2023-06-19T09:44:53;16.35;;;11.30;;
44810;SDS011;30526;52.184;4.476;2023-06-19T09:47:22;16.05;;;10.90;;
44810;SDS011;30526;52.184;4.476;2023-06-19T09:49:50;19.95;;;11.75;;
44810;SDS011;30526;52.184;4.476;2023-06-19T09:52:19;16.88;;;10.52;;
44810;SDS011;30526;52.184;4.476;2023-06-19T09:54:47;12.48;;;9.90;;
44810;SDS011;30526;52.184;4.476;2023-06-19T09:57:13;16.35;;;9.95;;
44810;SDS011;30526;52.184;4.476;2023-06-19T09:59:39;12.80;;;9.15;;
44810;SDS011;30526;52.184;4.476;2023-06-19T10:04:45;16.00;;;9.67;;
44810;SDS011;30526;52.184;4.476;2023-06-19T10:07:15;18.55;;;9.15;;
44810;SDS011;30526;52.184;4.476;2023-06-19T10:09:54;14.90;;;9.57;;
44810;SDS011;30526;52.184;4.476;2023-06-19T10:12:20;15.40;;;10.38;;
44810;SDS011;30526;52.184;4.476;2023-06-19T10:14:47;16.80;;;10.00;;
44810;SDS011;30526;52.184;4.476;2023-06-19T10:17:16;13.60;;;9.60;;
44810;SDS011;30526;52.184;4.476;2023-06-19T10:19:50;14.43;;;8.95;;
44810;SDS011;30526;52.184;4.476;2023-06-19T10:22:20;13.75;;;8.88;;
44810;SDS011;30526;52.184;4.476;2023-06-19T10:24:49;15.55;;;8.93;;
44810;SDS011;30526;52.184;4.476;2023-06-19T10:27:20;21.30;;;9.63;;
44810;SDS011;30526;52.184;4.476;2023-06-19T10:29:51;13.90;;;8.10;;
44810;SDS011;30526;52.184;4.476;2023-06-19T10:32:17;14.40;;;9.20;;
44810;SDS011;30526;52.184;4.476;2023-06-19T10:34:47;12.77;;;8.13;;
44810;SDS011;30526;52.184;4.476;2023-06-19T10:37:16;15.20;;;8.68;;
44810;SDS011;30526;52.184;4.476;2023-06-19T10:39:42;13.98;;;7.63;;
44810;SDS011;30526;52.184;4.476;2023-06-19T10:42:09;16.20;;;9.23;;
44810;SDS011;30526;52.184;4.476;2023-06-19T10:44:35;14.93;;;8.20;;
44810;SDS011;30526;52.184;4.476;2023-06-19T10:47:03;15.48;;;8.85;;
44810;SDS011;30526;52.184;4.476;2023-06-19T10:49:29;17.07;;;8.33;;
44810;SDS011;30526;52.184;4.476;2023-06-19T10:51:55;14.13;;;8.82;;
44810;SDS011;30526;52.184;4.476;2023-06-19T10:54:25;15.38;;;8.05;;
44810;SDS011;30526;52.184;4.476;2023-06-19T10:56:51;15.50;;;7.87;;
44810;SDS011;30526;52.184;4.476;2023-06-19T10:59:17;13.73;;;7.88;;
44810;SDS011;30526;52.184;4.476;2023-06-19T11:01:47;17.13;;;8.95;;
44810;SDS011;30526;52.184;4.476;2023-06-19T11:04:16;15.80;;;8.00;;
44810;SDS011;30526;52.184;4.476;2023-06-19T11:06:43;16.33;;;8.10;;
44810;SDS011;30526;52.184;4.476;2023-06-19T11:09:10;11.00;;;7.00;;
44810;SDS011;30526;52.184;4.476;2023-06-19T11:11:43;13.68;;;7.03;;
44810;SDS011;30526;52.184;4.476;2023-06-19T11:14:10;9.38;;;6.68;;
44810;SDS011;30526;52.184;4.476;2023-06-19T11:16:38;10.02;;;6.13;;
44810;SDS011;30526;52.184;4.476;2023-06-19T11:19:05;9.75;;;5.95;;
44810;SDS011;30526;52.184;4.476;2023-06-19T11:21:32;8.32;;;5.35;;
44810;SDS011;30526;52.184;4.476;2023-06-19T11:24:01;9.85;;;5.72;;
44810;SDS011;30526;52.184;4.476;2023-06-19T11:26:27;9.63;;;5.82;;
44810;SDS011;30526;52.184;4.476;2023-06-19T11:28:53;8.98;;;5.55;;
44810;SDS011;30526;52.184;4.476;2023-06-19T11:31:26;6.80;;;4.45;;
44810;SDS011;30526;52.184;4.476;2023-06-19T11:33:59;7.72;;;4.72;;
44810;SDS011;30526;52.184;4.476;2023-06-19T11:36:27;7.80;;;5.50;;
44810;SDS011;30526;52.184;4.476;2023-06-19T11:38:54;7.13;;;4.80;;
44810;SDS011;30526;52.184;4.476;2023-06-19T11:41:27;11.60;;;6.15;;
44810;SDS011;30526;52.184;4.476;2023-06-19T11:44:26;9.77;;;5.43;;
44810;SDS011;30526;52.184;4.476;2023-06-19T11:46:45;12.80;;;8.20;;
44810;SDS011;30526;52.184;4.476;2023-06-19T11:51:37;14.30;;;8.02;;
44810;SDS011;30526;52.184;4.476;2023-06-19T11:54:05;10.95;;;7.63;;
44810;SDS011;30526;52.184;4.476;2023-06-19T11:56:31;12.50;;;7.32;;
44810;SDS011;30526;52.184;4.476;2023-06-19T11:58:57;15.25;;;8.55;;
44810;SDS011;30526;52.184;4.476;2023-06-19T12:01:23;12.40;;;7.22;;
44810;SDS011;30526;52.184;4.476;2023-06-19T12:03:49;10.48;;;6.68;;
44810;SDS011;30526;52.184;4.476;2023-06-19T12:06:16;12.48;;;7.63;;
44810;SDS011;30526;52.184;4.476;2023-06-19T12:08:44;12.93;;;8.30;;
44810;SDS011;30526;52.184;4.476;2023-06-19T12:11:10;9.02;;;5.78;;
44810;SDS011;30526;52.184;4.476;2023-06-19T12:13:38;11.10;;;8.13;;
44810;SDS011;30526;52.184;4.476;2023-06-19T12:16:04;13.52;;;8.55;;
44810;SDS011;30526;52.184;4.476;2023-06-19T12:18:30;16.20;;;9.68;;
44810;SDS011;30526;52.184;4.476;2023-06-19T12:20:55;13.95;;;9.85;;
44810;SDS011;30526;52.184;4.476;2023-06-19T12:23:21;12.67;;;9.60;;
44810;SDS011;30526;52.184;4.476;2023-06-19T12:25:47;16.17;;;9.00;;
44810;SDS011;30526;52.184;4.476;2023-06-19T12:28:13;16.97;;;10.97;;
44810;SDS011;30526;52.184;4.476;2023-06-19T12:30:43;13.18;;;10.13;;
44810;SDS011;30526;52.184;4.476;2023-06-19T12:33:09;15.75;;;9.60;;
44810;SDS011;30526;52.184;4.476;2023-06-19T12:35:38;13.90;;;9.85;;
44810;SDS011;30526;52.184;4.476;2023-06-19T12:38:04;13.68;;;10.13;;
44810;SDS011;30526;52.184;4.476;2023-06-19T12:40:31;13.88;;;7.90;;
44810;SDS011;30526;52.184;4.476;2023-06-19T12:42:57;10.43;;;6.70;;
44810;SDS011;30526;52.184;4.476;2023-06-19T12:45:23;14.07;;;8.30;;
44810;SDS011;30526;52.184;4.476;2023-06-19T12:47:50;12.40;;;7.88;;
44810;SDS011;30526;52.184;4.476;2023-06-19T12:50:16;14.32;;;9.23;;
44810;SDS011;30526;52.184;4.476;2023-06-19T12:52:42;11.88;;;8.20;;
44810;SDS011;30526;52.184;4.476;2023-06-19T12:55:08;14.73;;;8.98;;
44810;SDS011;30526;52.184;4.476;2023-06-19T12:57:34;14.82;;;8.32;;
44810;SDS011;30526;52.184;4.476;2023-06-19T13:00:00;15.02;;;9.30;;
44810;SDS011;30526;52.184;4.476;2023-06-19T13:02:26;13.20;;;9.05;;
44810;SDS011;30526;52.184;4.476;2023-06-19T13:04:52;13.38;;;8.77;;
44810;SDS011;30526;52.184;4.476;2023-06-19T13:07:18;12.02;;;7.10;;
44810;SDS011;30526;52.184;4.476;2023-06-19T13:09:44;10.77;;;6.88;;
44810;SDS011;30526;52.184;4.476;2023-06-19T13:12:10;10.63;;;7.00;;
44810;SDS011;30526;52.184;4.476;2023-06-19T13:14:36;10.18;;;6.00;;
44810;SDS011;30526;52.184;4.476;2023-06-19T13:19:28;10.55;;;6.57;;
44810;SDS011;30526;52.184;4.476;2023-06-19T13:21:54;12.73;;;6.13;;
44810;SDS011;30526;52.184;4.476;2023-06-19T13:24:20;7.85;;;6.20;;
44810;SDS011;30526;52.184;4.476;2023-06-19T13:26:46;8.32;;;6.55;;
44810;SDS011;30526;52.184;4.476;2023-06-19T13:29:12;8.90;;;5.95;;
44810;SDS011;30526;52.184;4.476;2023-06-19T13:31:38;9.55;;;6.50;;
44810;SDS011;30526;52.184;4.476;2023-06-19T13:34:04;11.95;;;6.97;;
44810;SDS011;30526;52.184;4.476;2023-06-19T13:36:30;10.13;;;6.22;;
44810;SDS011;30526;52.184;4.476;2023-06-19T13:38:56;6.60;;;4.85;;
44810;SDS011;30526;52.184;4.476;2023-06-19T13:41:22;9.63;;;6.25;;
44810;SDS011;30526;52.184;4.476;2023-06-19T13:43:52;8.68;;;5.60;;
44810;SDS011;30526;52.184;4.476;2023-06-19T13:46:18;7.38;;;5.32;;
44810;SDS011;30526;52.184;4.476;2023-06-19T13:48:46;7.53;;;5.10;;
44810;SDS011;30526;52.184;4.476;2023-06-19T13:51:15;7.85;;;4.82;;
44810;SDS011;30526;52.184;4.476;2023-06-19T13:53:41;6.75;;;5.05;;
44810;SDS011;30526;52.184;4.476;2023-06-19T13:56:07;9.02;;;5.28;;
44810;SDS011;30526;52.184;4.476;2023-06-19T13:58:33;9.18;;;4.93;;
44810;SDS011;30526;52.184;4.476;2023-06-19T14:00:59;8.38;;;5.15;;
44810;SDS011;30526;52.184;4.476;2023-06-19T14:03:25;8.15;;;5.00;;
44810;SDS011;30526;52.184;4.476;2023-06-19T14:05:51;10.07;;;4.65;;
44810;SDS011;30526;52.184;4.476;2023-06-19T14:08:17;8.50;;;5.55;;
44810;SDS011;30526;52.184;4.476;2023-06-19T14:10:43;7.22;;;4.70;;
44810;SDS011;30526;52.184;4.476;2023-06-19T14:13:09;8.63;;;5.10;;
44810;SDS011;30526;52.184;4.476;2023-06-19T14:15:35;6.30;;;5.13;;
44810;SDS011;30526;52.184;4.476;2023-06-19T14:18:01;6.60;;;5.20;;
44810;SDS011;30526;52.184;4.476;2023-06-19T14:20:27;9.23;;;5.32;;
44810;SDS011;30526;52.184;4.476;2023-06-19T14:22:53;8.60;;;5.57;;
44810;SDS011;30526;52.184;4.476;2023-06-19T14:25:19;6.93;;;4.78;;
44810;SDS011;30526;52.184;4.476;2023-06-19T14:27:45;7.78;;;4.95;;
44810;SDS011;30526;52.184;4.476;2023-06-19T14:30:11;7.18;;;4.90;;
44810;SDS011;30526;52.184;4.476;2023-06-19T14:32:37;6.38;;;4.78;;
44810;SDS011;30526;52.184;4.476;2023-06-19T14:35:04;7.47;;;5.25;;
44810;SDS011;30526;52.184;4.476;2023-06-19T14:37:30;7.57;;;5.38;;
44810;SDS011;30526;52.184;4.476;2023-06-19T14:39:56;8.45;;;5.45;;
44810;SDS011;30526;52.184;4.476;2023-06-19T14:42:23;7.20;;;5.32;;
44810;SDS011;30526;52.184;4.476;2023-06-19T14:44:49;8.10;;;5.43;;